createdAt,value
2016-11-07T11:03:14.349Z,764
2016-11-07T11:04:13.124Z,708
2016-11-07T11:07:28.202Z,776
2016-11-07T11:08:38.572Z,724
2016-11-07T11:09:49.579Z,772
2016-11-07T11:10:59.923Z,832
2016-11-07T11:12:10.538Z,848
2016-11-07T11:13:20.897Z,868
2016-11-07T11:14:31.517Z,888
2016-11-07T11:15:41.881Z,932
2016-11-07T11:16:52.730Z,888
2016-11-07T11:18:03.093Z,876
2016-11-07T11:19:13.444Z,892
2016-11-07T11:20:23.926Z,896
2016-11-07T11:21:34.315Z,868
2016-11-07T11:22:44.686Z,812
2016-11-07T11:23:55.070Z,792
2016-11-07T11:25:35.044Z,804
2016-11-07T11:26:45.665Z,796
2016-11-07T11:29:21.231Z,796
2016-11-07T11:30:31.726Z,824
2016-11-07T11:31:42.317Z,824
2016-11-07T11:32:52.828Z,828
2016-11-07T11:34:03.317Z,828
2016-11-07T11:35:13.993Z,832
2016-11-07T11:36:24.879Z,820
2016-11-07T11:37:35.427Z,836
2016-11-07T11:38:45.919Z,860
2016-11-07T11:41:21.638Z,860
2016-11-07T11:42:32.257Z,872
2016-11-07T11:43:57.330Z,820
2016-11-07T11:45:07.813Z,728
2016-11-07T11:46:18.747Z,924
2016-11-07T11:47:29.455Z,968
2016-11-07T11:48:40.352Z,980
2016-11-07T11:49:50.867Z,932
2016-11-07T11:51:01.572Z,968
2016-11-07T11:52:12.130Z,800
2016-11-07T11:53:24.370Z,984
2016-11-07T11:54:34.897Z,992
2016-11-07T11:55:45.414Z,992
2016-11-07T11:56:55.917Z,1044
2016-11-07T11:58:06.619Z,1080
2016-11-07T11:59:32.872Z,1104
2016-11-07T12:00:57.911Z,1124
2016-11-07T12:02:22.944Z,1180
2016-11-07T12:03:33.385Z,1208
2016-11-07T12:04:43.972Z,1248
2016-11-07T12:05:54.345Z,1340
2016-11-07T12:07:06.263Z,1320
2016-11-07T12:08:16.656Z,1364
2016-11-07T12:09:27.528Z,1384
2016-11-07T12:10:37.923Z,1376
2016-11-07T12:11:48.324Z,1380
2016-11-07T12:12:58.704Z,1448
2016-11-07T12:14:09.097Z,1548
2016-11-07T12:15:19.574Z,1656
2016-11-07T12:16:30.174Z,1756
2016-11-07T12:17:40.583Z,1804
2016-11-07T12:19:05.532Z,1864
2016-11-07T12:20:16.022Z,2008
2016-11-07T12:21:26.397Z,2008
2016-11-07T12:22:36.775Z,2040
2016-11-07T12:23:47.163Z,2056
2016-11-07T12:24:57.746Z,2088
2016-11-07T12:26:08.328Z,2172
2016-11-07T12:27:18.731Z,2244
2016-11-07T12:28:29.133Z,2356
2016-11-07T12:29:39.501Z,2260
2016-11-07T12:30:49.898Z,2152
2016-11-07T12:32:00.401Z,2160
2016-11-07T12:33:10.775Z,2284
2016-11-07T12:34:21.194Z,2080
2016-11-07T12:35:31.582Z,2032
2016-11-07T12:36:41.971Z,1400
2016-11-07T12:37:52.367Z,2184
2016-11-07T12:39:02.763Z,2260
2016-11-07T12:40:13.152Z,2328
2016-11-07T12:41:24.949Z,2388
2016-11-07T12:42:35.333Z,2440
2016-11-07T12:43:45.717Z,2428
2016-11-07T12:45:10.669Z,2560
2016-11-07T12:46:21.051Z,2324
2016-11-07T12:47:31.460Z,2356
2016-11-07T12:48:42.156Z,2592
2016-11-07T12:49:52.558Z,2604
2016-11-07T12:51:02.951Z,2528
2016-11-07T12:52:13.368Z,2572
2016-11-07T12:53:24.659Z,2024
2016-11-07T12:54:35.467Z,1764
2016-11-07T12:55:45.875Z,2736
2016-11-07T12:56:56.320Z,1240
2016-11-07T12:58:06.914Z,1340
2016-11-07T12:59:17.524Z,1428
2016-11-07T13:00:28.007Z,1976
2016-11-07T13:01:38.504Z,2260
2016-11-07T13:02:49.406Z,2452
2016-11-07T13:03:59.907Z,2620
2016-11-07T13:05:10.411Z,2796
2016-11-07T13:06:21.309Z,2716
2016-11-07T13:07:31.816Z,2724
2016-11-07T13:08:42.321Z,2852
2016-11-07T13:09:52.938Z,2744
2016-11-07T13:11:18.456Z,2820
2016-11-07T13:12:29.482Z,2796
2016-11-07T13:13:40.607Z,2804
2016-11-07T13:15:05.740Z,2752
2016-11-07T13:16:16.362Z,2876
2016-11-07T13:17:26.993Z,2840
2016-11-07T13:18:37.615Z,2796
2016-11-07T13:19:48.236Z,2600
2016-11-07T13:20:58.862Z,2480
2016-11-07T13:22:09.674Z,2552
2016-11-07T13:23:20.797Z,2744
2016-11-07T13:24:31.432Z,2836
2016-11-07T13:25:42.096Z,2764
2016-11-07T13:26:52.727Z,2792
2016-11-07T13:28:03.353Z,2784
2016-11-07T13:29:13.998Z,2768
2016-11-07T13:30:24.612Z,2868
2016-11-07T13:31:35.431Z,2632
2016-11-07T13:32:46.055Z,2736
2016-11-07T13:33:57.380Z,2900
2016-11-07T13:35:23.106Z,2516
2016-11-07T13:36:33.728Z,1820
2016-11-07T13:37:44.350Z,2768
2016-11-07T13:38:54.967Z,2480
2016-11-07T13:40:05.597Z,2700
2016-11-07T13:41:16.412Z,1172
2016-11-07T13:43:52.836Z,2384
2016-11-07T13:45:18.425Z,2780
2016-11-07T13:46:28.959Z,2380
2016-11-07T13:47:39.700Z,2548
2016-11-07T13:48:50.262Z,1896
2016-11-07T13:50:00.792Z,2388
2016-11-07T13:51:11.728Z,2060
2016-11-07T13:52:22.445Z,1436
2016-11-07T13:53:33.185Z,1308
2016-11-07T13:54:44.110Z,1280
2016-11-07T13:55:54.742Z,1312
2016-11-07T13:57:05.462Z,1388
2016-11-07T13:58:15.997Z,1396
2016-11-07T13:59:26.528Z,1476
2016-11-07T14:00:51.794Z,1468
2016-11-07T14:02:02.325Z,1396
2016-11-07T14:03:12.887Z,1376
2016-11-07T14:04:23.529Z,1428
2016-11-07T14:05:34.064Z,1432
2016-11-07T14:06:59.355Z,1512
2016-11-07T14:08:09.899Z,1664
2016-11-07T14:09:20.638Z,1556
2016-11-07T14:10:31.897Z,1544
2016-11-07T14:11:42.639Z,1544
2016-11-07T14:12:53.572Z,1516
2016-11-07T14:14:04.498Z,1500
2016-11-07T14:15:15.050Z,1488
2016-11-07T14:16:26.528Z,1440
2016-11-07T14:17:37.257Z,1412
2016-11-07T14:18:47.797Z,1368
2016-11-07T14:19:58.330Z,1316
2016-11-07T14:21:08.866Z,1308
2016-11-07T14:22:19.398Z,1304
2016-11-07T14:23:44.740Z,1368
2016-11-07T14:25:10.085Z,1244
2016-11-07T14:26:20.621Z,1380
2016-11-07T14:27:31.528Z,1256
2016-11-07T14:28:43.158Z,1172
2016-11-07T14:29:53.695Z,1076
2016-11-07T14:31:04.303Z,1020
2016-11-07T14:32:14.926Z,1004
2016-11-07T14:33:25.558Z,992
2016-11-07T14:34:36.181Z,992
2016-11-07T14:35:47.209Z,992
2016-11-07T14:36:57.830Z,1000
2016-11-07T14:38:08.452Z,1012
2016-11-07T14:39:19.484Z,1024
2016-11-07T14:40:44.971Z,1084
2016-11-07T14:43:20.729Z,1316
2016-11-07T14:44:31.358Z,1444
2016-11-07T14:45:42.083Z,2564
2016-11-07T14:46:53.104Z,2276
2016-11-07T14:48:03.910Z,1480
2016-11-07T14:49:14.531Z,1516
2016-11-07T14:52:19.352Z,1328
2016-11-07T14:53:30.815Z,1392
2016-11-07T14:54:41.637Z,1468
2016-11-07T14:55:52.268Z,1416
2016-11-07T14:57:18.038Z,1328
2016-11-07T14:58:28.703Z,1232
2016-11-07T14:59:39.579Z,1260
2016-11-07T15:00:50.637Z,1308
2016-11-07T15:02:15.774Z,1112
2016-11-07T15:03:26.403Z,1156
2016-11-07T15:04:37.031Z,1376
2016-11-07T15:05:47.653Z,1372
2016-11-07T15:06:58.274Z,2316
2016-11-07T15:08:09.300Z,2356
2016-11-07T15:09:19.935Z,2240
2016-11-07T15:10:31.003Z,2084
2016-11-07T15:11:56.641Z,1592
2016-11-07T15:13:07.271Z,2004
2016-11-07T15:14:17.926Z,2008
2016-11-07T15:15:28.575Z,2056
2016-11-07T15:17:05.084Z,2116
2016-11-07T15:18:15.579Z,2108
2016-11-07T15:19:25.994Z,2148
2016-11-07T15:22:16.608Z,2088
2016-11-07T15:23:27.020Z,2112
2016-11-07T15:24:37.523Z,2172
2016-11-07T15:25:48.224Z,2092
2016-11-07T15:26:59.160Z,1596
2016-11-07T15:28:09.690Z,2120
2016-11-07T15:29:20.627Z,2132
2016-11-07T15:30:31.957Z,2168
2016-11-07T15:31:42.529Z,2152
2016-11-07T15:32:53.060Z,2024
2016-11-07T15:34:03.594Z,1860
2016-11-07T15:35:14.526Z,1332
2016-11-07T15:37:50.166Z,1260
2016-11-07T15:39:02.232Z,1244
2016-11-07T15:40:14.511Z,1320
2016-11-07T15:41:40.529Z,1260
2016-11-07T15:42:51.250Z,1268
2016-11-07T15:44:01.986Z,1248
2016-11-07T15:45:14.908Z,1212
2016-11-07T15:46:40.157Z,1144
2016-11-07T15:47:50.693Z,1156
2016-11-07T15:49:01.236Z,1140
2016-11-07T15:50:26.799Z,1116
2016-11-07T15:51:51.864Z,1112
2016-11-07T15:53:02.391Z,1116
2016-11-07T15:54:12.932Z,1272
2016-11-07T15:55:23.654Z,1348
2016-11-07T15:56:34.186Z,1292
2016-11-07T15:57:44.970Z,1272
2016-11-07T15:58:56.203Z,1276
2016-11-07T16:00:06.747Z,1556
2016-11-07T16:01:17.288Z,1392
2016-11-07T16:02:28.216Z,1384
2016-11-07T16:03:39.147Z,1260
2016-11-07T16:04:49.877Z,1152
2016-11-07T16:06:00.410Z,1136
2016-11-07T16:07:10.974Z,1088
2016-11-07T16:08:21.736Z,1140
2016-11-07T16:09:32.306Z,1132
2016-11-07T16:10:42.841Z,1180
2016-11-07T16:11:53.371Z,1668
2016-11-07T16:13:04.403Z,1636
2016-11-07T16:14:14.940Z,1496
2016-11-07T16:15:25.472Z,1716
2016-11-07T16:16:36.005Z,1700
2016-11-07T16:17:46.928Z,1600
2016-11-07T16:18:57.465Z,1360
2016-11-07T16:20:08.002Z,1252
2016-11-07T16:21:18.735Z,1132
2016-11-07T16:22:29.271Z,1012
2016-11-07T16:23:39.800Z,1012
2016-11-07T16:24:50.333Z,1092
2016-11-07T16:26:02.460Z,1128
2016-11-07T16:27:12.961Z,996
2016-11-07T16:28:23.403Z,1068
2016-11-07T16:29:34.348Z,1020
2016-11-07T16:30:44.791Z,972
2016-11-07T16:31:55.232Z,932
2016-11-07T16:33:05.597Z,888
2016-11-07T16:34:15.958Z,856
2016-11-07T16:35:26.279Z,1080
2016-11-07T16:36:36.608Z,1292
2016-11-07T16:37:47.411Z,1404
2016-11-07T16:38:58.247Z,1532
2016-11-07T16:40:08.574Z,1476
2016-11-07T16:41:18.902Z,1280
2016-11-07T16:42:29.260Z,1040
2016-11-07T16:43:39.612Z,1300
2016-11-07T16:45:04.507Z,1296
2016-11-07T16:46:14.831Z,1288
2016-11-07T16:47:39.723Z,1204
2016-11-07T16:48:50.045Z,1264
2016-11-07T16:50:00.367Z,1000
2016-11-07T16:51:10.691Z,1160
2016-11-07T16:52:21.519Z,1072
2016-11-07T16:53:32.040Z,1364
2016-11-07T16:54:42.397Z,1368
2016-11-07T16:55:52.718Z,1300
2016-11-07T16:57:03.038Z,1328
2016-11-07T16:58:28.130Z,1252
2016-11-07T16:59:38.451Z,1168
2016-11-07T17:00:48.772Z,1152
2016-11-07T17:01:59.098Z,816
2016-11-07T17:03:09.421Z,764
2016-11-07T17:04:19.743Z,620
2016-11-07T17:05:30.151Z,572
2016-11-07T17:06:40.590Z,516
2016-11-07T17:07:51.034Z,460
2016-11-07T17:09:01.675Z,492
2016-11-07T17:10:12.183Z,500
2016-11-07T17:11:23.111Z,496
2016-11-07T17:12:33.552Z,496
2016-11-07T17:13:43.990Z,516
2016-11-07T17:14:54.467Z,512
2016-11-07T17:16:04.959Z,508
2016-11-07T17:17:15.405Z,512
2016-11-07T17:18:40.389Z,540
2016-11-07T17:19:50.830Z,564
2016-11-07T17:21:01.307Z,572
2016-11-07T17:22:11.752Z,580
2016-11-07T17:23:22.676Z,584
2016-11-07T17:25:58.141Z,604
2016-11-07T17:27:08.578Z,616
2016-11-07T17:28:33.565Z,656
2016-11-07T17:29:44.082Z,640
2016-11-07T17:30:55.311Z,664
2016-11-07T17:32:05.870Z,652
2016-11-07T17:33:30.933Z,652
2016-11-07T17:34:41.465Z,672
2016-11-07T17:35:52.001Z,672
2016-11-07T17:37:02.571Z,684
2016-11-07T17:38:13.105Z,704
2016-11-07T17:39:23.648Z,676
2016-11-07T17:40:34.179Z,672
2016-11-07T17:41:59.241Z,704
2016-11-07T17:43:09.775Z,696
2016-11-07T17:44:20.343Z,660
2016-11-07T17:45:30.879Z,660
2016-11-07T17:46:41.411Z,680
2016-11-07T17:47:51.945Z,660
2016-11-07T17:49:02.665Z,660
2016-11-07T17:50:13.196Z,644
2016-11-07T17:51:23.728Z,652
2016-11-07T17:52:34.268Z,636
2016-11-07T17:53:44.798Z,640
2016-11-07T17:54:55.365Z,628
2016-11-07T17:56:05.897Z,620
2016-11-07T17:57:16.433Z,600
2016-11-07T17:58:26.964Z,568
2016-11-07T17:59:37.532Z,568
2016-11-07T18:02:13.124Z,524
2016-11-07T18:03:23.759Z,480
2016-11-07T18:04:34.324Z,500
2016-11-07T18:05:44.865Z,536
2016-11-07T18:06:55.467Z,560
2016-11-07T18:08:06.001Z,576
2016-11-07T18:09:16.536Z,572
2016-11-07T18:10:27.068Z,616
2016-11-07T18:11:37.602Z,592
2016-11-07T18:12:48.643Z,592
2016-11-07T18:17:04.120Z,596
2016-11-07T18:18:14.563Z,576
2016-11-07T18:19:25.102Z,552
2016-11-07T18:20:35.538Z,560
2016-11-07T18:21:46.006Z,568
2016-11-07T18:22:56.446Z,568
2016-11-07T18:24:06.919Z,588
2016-11-07T18:25:17.361Z,576
2016-11-07T18:26:27.801Z,584
2016-11-07T18:27:38.243Z,552
2016-11-07T18:28:48.682Z,528
2016-11-07T18:29:59.121Z,532
2016-11-07T18:31:10.148Z,560
2016-11-07T18:32:20.594Z,580
2016-11-07T18:33:31.032Z,620
2016-11-07T18:34:41.962Z,608
2016-11-07T18:35:52.416Z,656
2016-11-07T18:37:03.447Z,640
2016-11-07T18:38:13.888Z,620
2016-11-07T18:39:24.329Z,616
2016-11-07T18:40:34.769Z,628
2016-11-07T18:41:45.213Z,628
2016-11-07T18:42:55.754Z,624
2016-11-07T18:44:06.227Z,636
2016-11-07T18:45:16.584Z,640
2016-11-07T18:46:41.476Z,632
2016-11-07T18:47:51.795Z,656
2016-11-07T18:49:02.594Z,676
2016-11-07T18:50:12.917Z,716
2016-11-07T18:51:23.236Z,800
2016-11-07T18:52:33.554Z,932
2016-11-07T18:53:43.911Z,860
2016-11-07T18:54:54.231Z,808
2016-11-07T18:56:04.555Z,820
2016-11-07T18:57:29.520Z,848
2016-11-07T18:58:40.422Z,920
2016-11-07T18:59:50.741Z,856
2016-11-07T19:01:01.059Z,804
2016-11-07T19:02:11.384Z,820
2016-11-07T19:03:24.428Z,1044
2016-11-07T19:04:34.753Z,1000
2016-11-07T19:05:45.073Z,832
2016-11-07T19:06:55.873Z,780
2016-11-07T19:08:06.191Z,744
2016-11-07T19:09:16.550Z,740
2016-11-07T19:10:26.879Z,768
2016-11-07T19:11:37.202Z,1260
2016-11-07T19:13:02.093Z,1228
2016-11-07T19:14:12.418Z,1324
2016-11-07T19:15:22.855Z,1160
2016-11-07T19:16:33.654Z,796
2016-11-07T19:17:43.976Z,652
2016-11-07T19:20:19.187Z,588
2016-11-07T19:21:29.613Z,540
2016-11-07T19:22:40.417Z,532
2016-11-07T19:24:05.310Z,536
2016-11-07T19:25:15.635Z,508
2016-11-07T19:27:50.889Z,600
2016-11-07T19:29:01.694Z,528
2016-11-07T19:30:12.019Z,504
2016-11-07T19:31:22.351Z,464
2016-11-07T19:32:32.677Z,484
2016-11-07T19:33:57.569Z,480
2016-11-07T19:35:07.891Z,472
2016-11-07T19:36:32.785Z,448
2016-11-07T19:37:43.110Z,400
2016-11-07T19:38:53.435Z,364
2016-11-07T19:40:03.788Z,360
2016-11-07T19:41:14.114Z,356
2016-11-07T19:42:24.442Z,372
2016-11-07T19:43:35.241Z,400
2016-11-07T19:44:45.565Z,424
2016-11-07T19:45:55.885Z,440
2016-11-07T19:47:06.679Z,444
2016-11-07T19:49:41.936Z,372
2016-11-07T19:50:52.256Z,372
2016-11-07T19:52:02.582Z,396
2016-11-07T19:53:12.908Z,400
2016-11-07T19:54:23.230Z,356
2016-11-07T19:55:33.556Z,328
2016-11-07T19:56:44.359Z,292
2016-11-07T19:57:54.684Z,296
2016-11-07T19:59:05.009Z,308
2016-11-07T20:00:15.760Z,280
2016-11-07T20:01:26.086Z,244
2016-11-07T20:02:36.406Z,228
2016-11-07T20:04:01.293Z,220
2016-11-07T20:06:36.503Z,252
2016-11-07T20:08:01.392Z,272
2016-11-07T20:09:12.189Z,264
2016-11-07T20:10:22.990Z,256
2016-11-07T20:11:33.312Z,244
2016-11-07T20:12:44.106Z,228
2016-11-07T20:13:54.437Z,216
2016-11-07T20:15:04.756Z,240
2016-11-07T20:16:15.119Z,244
2016-11-07T20:17:25.452Z,240
2016-11-07T20:18:35.771Z,228
2016-11-07T20:19:46.089Z,220
2016-11-07T20:20:56.619Z,200
2016-11-07T20:22:07.415Z,196
2016-11-07T20:23:17.739Z,188
2016-11-07T20:24:28.060Z,192
2016-11-07T20:25:38.383Z,188
2016-11-07T20:26:48.908Z,180
2016-11-07T20:29:38.696Z,184
2016-11-07T20:30:49.015Z,180
2016-11-07T20:32:13.907Z,160
2016-11-07T20:33:38.833Z,144
2016-11-07T20:34:49.151Z,148
2016-11-07T20:36:14.514Z,148
2016-11-07T20:37:24.838Z,152
2016-11-07T20:38:35.161Z,148
2016-11-07T20:39:45.478Z,148
2016-11-07T20:40:55.805Z,132
2016-11-07T20:42:06.131Z,128
2016-11-07T20:43:17.133Z,124
2016-11-07T20:44:27.454Z,132
2016-11-07T20:45:37.777Z,132
2016-11-07T20:46:48.099Z,132
2016-11-07T20:48:12.992Z,152
2016-11-07T20:49:23.315Z,168
2016-11-07T20:51:58.569Z,176
2016-11-07T20:53:08.900Z,164
2016-11-07T20:54:19.434Z,152
2016-11-07T20:55:44.325Z,140
2016-11-07T20:56:54.687Z,128
2016-11-07T20:58:05.024Z,116
2016-11-07T20:59:15.434Z,108
2016-11-07T21:00:25.906Z,104
2016-11-07T21:01:36.346Z,92
2016-11-07T21:02:46.784Z,88
2016-11-07T21:03:57.225Z,88
2016-11-07T21:05:07.661Z,80
2016-11-07T21:06:18.100Z,72
2016-11-07T21:07:28.540Z,64
2016-11-07T21:08:38.974Z,64
2016-11-07T21:09:49.408Z,60
2016-11-07T21:11:00.057Z,56
2016-11-07T21:12:10.507Z,48
2016-11-07T21:13:20.952Z,44
2016-11-07T21:14:31.422Z,40
2016-11-07T21:15:41.865Z,32
2016-11-07T21:16:52.407Z,28
2016-11-07T21:18:17.391Z,24
2016-11-07T21:19:27.838Z,20
2016-11-07T21:20:52.824Z,20
2016-11-07T21:22:03.401Z,16
2016-11-07T21:24:38.829Z,12
2016-11-07T21:25:49.277Z,8
2016-11-07T21:27:14.997Z,8
2016-11-07T21:28:25.441Z,8
2016-11-07T21:29:35.951Z,8
2016-11-07T21:30:46.396Z,4
2016-11-07T21:31:56.836Z,4
2016-11-07T21:33:07.376Z,4
2016-11-07T21:34:17.812Z,4
2016-11-07T21:35:28.250Z,4
2016-11-07T21:36:38.691Z,0
2016-11-07T21:38:03.674Z,12
2016-11-07T21:39:14.112Z,12
2016-11-07T21:40:24.558Z,12
2016-11-07T21:41:35.007Z,16
2016-11-07T21:42:45.445Z,16
2016-11-07T21:44:39.517Z,12
2016-11-07T21:45:49.959Z,12
2016-11-07T21:47:14.943Z,12
2016-11-07T21:48:25.384Z,12
2016-11-07T21:49:35.829Z,12
2016-11-07T21:50:46.758Z,12
2016-11-07T21:51:57.193Z,12
2016-11-07T21:54:32.818Z,12
2016-11-07T21:55:43.263Z,12
2016-11-07T21:56:53.701Z,12
2016-11-07T21:58:04.691Z,12
2016-11-07T21:59:29.689Z,12
2016-11-07T22:00:40.617Z,8
2016-11-07T22:01:51.064Z,16
2016-11-07T22:03:01.502Z,12
2016-11-07T22:04:12.432Z,12
2016-11-07T22:05:22.976Z,12
2016-11-07T22:06:33.655Z,12
2016-11-07T22:07:44.095Z,12
2016-11-07T22:09:09.334Z,12
2016-11-07T22:10:19.774Z,8
2016-11-07T22:11:30.222Z,16
2016-11-07T22:12:40.704Z,12
2016-11-07T22:13:51.144Z,8
2016-11-07T22:15:01.783Z,16
2016-11-07T22:16:12.237Z,12
2016-11-07T22:17:22.676Z,12
2016-11-07T22:18:33.122Z,12
2016-11-07T22:19:43.583Z,12
2016-11-07T22:20:54.024Z,12
2016-11-07T22:22:04.947Z,12
2016-11-07T22:23:15.396Z,12
2016-11-07T22:24:25.841Z,16
2016-11-07T22:25:51.030Z,12
2016-11-07T22:27:01.467Z,8
2016-11-07T22:28:11.906Z,8
2016-11-07T22:29:22.345Z,16
2016-11-07T22:30:32.790Z,12
2016-11-07T22:31:43.329Z,12
2016-11-07T22:32:53.770Z,12
2016-11-07T22:34:04.208Z,12
2016-11-07T22:35:14.652Z,12
2016-11-07T22:36:25.091Z,8
2016-11-07T22:37:35.741Z,12
2016-11-07T22:38:46.184Z,12
2016-11-07T22:39:56.626Z,12
2016-11-07T22:41:07.069Z,12
2016-11-07T22:42:17.532Z,8
2016-11-07T22:43:27.971Z,12
2016-11-07T22:44:38.409Z,16
2016-11-07T22:45:48.849Z,16
2016-11-07T22:46:59.288Z,16
2016-11-07T22:48:09.724Z,16
2016-11-07T22:49:20.168Z,16
2016-11-07T22:50:45.147Z,16
2016-11-07T22:51:55.590Z,16
2016-11-07T22:53:06.028Z,8
2016-11-07T22:54:16.668Z,8
2016-11-07T22:55:27.110Z,12
2016-11-07T22:56:52.092Z,16
2016-11-07T22:58:02.530Z,16
2016-11-07T22:59:12.970Z,16
2016-11-07T23:00:23.616Z,8
2016-11-07T23:01:34.093Z,16
2016-11-07T23:02:44.534Z,12
2016-11-07T23:03:54.977Z,12
2016-11-07T23:05:05.423Z,12
2016-11-07T23:06:15.866Z,12
2016-11-07T23:07:26.311Z,12
2016-11-07T23:08:36.748Z,12
2016-11-07T23:09:47.194Z,12
2016-11-07T23:10:57.632Z,12
2016-11-07T23:12:08.074Z,12
2016-11-07T23:13:33.059Z,12
2016-11-07T23:14:43.498Z,12
2016-11-07T23:15:54.173Z,12
2016-11-07T23:17:04.612Z,12
2016-11-07T23:18:29.598Z,12
2016-11-07T23:19:40.037Z,12
2016-11-07T23:20:50.474Z,8
2016-11-07T23:22:01.018Z,12
2016-11-07T23:23:26.007Z,12
2016-11-07T23:24:36.448Z,12
2016-11-07T23:25:46.928Z,12
2016-11-07T23:28:22.551Z,12
2016-11-07T23:29:32.994Z,12
2016-11-07T23:30:43.435Z,12
2016-11-07T23:31:54.073Z,12
2016-11-07T23:33:04.512Z,16
2016-11-07T23:34:14.951Z,12
2016-11-07T23:35:25.393Z,12
2016-11-07T23:36:35.836Z,12
2016-11-07T23:37:46.475Z,12
2016-11-07T23:38:56.950Z,8
2016-11-07T23:40:07.390Z,8
2016-11-07T23:41:17.832Z,16
2016-11-07T23:42:28.270Z,12
2016-11-07T23:43:38.721Z,12
2016-11-07T23:45:03.706Z,12
2016-11-07T23:46:14.146Z,12
2016-11-07T23:47:24.587Z,12
2016-11-07T23:48:35.032Z,12
2016-11-07T23:49:45.475Z,12
2016-11-07T23:50:55.912Z,12
2016-11-07T23:52:06.348Z,12
2016-11-07T23:53:16.786Z,12
2016-11-07T23:54:27.266Z,12
2016-11-07T23:55:37.715Z,8
2016-11-07T23:56:48.156Z,12
2016-11-07T23:57:58.600Z,12
2016-11-07T23:59:09.084Z,16
